sensor_id;sensor_type;location;lat;lon;timestamp;temperature;humidity
9383;DHT22;4731;49.708;10.816;2023-06-14T00:00:47;15.60;99.90
9383;DHT22;4731;49.708;10.816;2023-06-14T00:03:18;15.60;99.90
9383;DHT22;4731;49.708;10.816;2023-06-14T00:05:48;15.50;99.90
9383;DHT22;4731;49.708;10.816;2023-06-14T00:08:22;15.50;99.90
9383;DHT22;4731;49.708;10.816;2023-06-14T00:10:57;15.50;99.90
9383;DHT22;4731;49.708;10.816;2023-06-14T00:13:26;15.40;99.90
9383;DHT22;4731;49.708;10.816;2023-06-14T00:15:55;15.30;99.90
9383;DHT22;4731;49.708;10.816;2023-06-14T00:18:31;15.30;99.90
9383;DHT22;4731;49.708;10.816;2023-06-14T00:21:01;15.20;99.90
9383;DHT22;4731;49.708;10.816;2023-06-14T00:26:25;15.30;99.90
9383;DHT22;4731;49.708;10.816;2023-06-14T00:28:54;15.30;99.90
9383;DHT22;4731;49.708;10.816;2023-06-14T00:31:28;15.30;99.90
9383;DHT22;4731;49.708;10.816;2023-06-14T00:33:56;15.30;99.90
9383;DHT22;4731;49.708;10.816;2023-06-14T00:36:37;15.20;99.90
9383;DHT22;4731;49.708;10.816;2023-06-14T00:39:16;15.20;99.90
9383;DHT22;4731;49.708;10.816;2023-06-14T00:41:45;15.10;99.90
9383;DHT22;4731;49.708;10.816;2023-06-14T00:44:13;15.00;99.90
9383;DHT22;4731;49.708;10.816;2023-06-14T00:46:53;15.00;99.90
9383;DHT22;4731;49.708;10.816;2023-06-14T00:49:28;14.90;99.90
9383;DHT22;4731;49.708;10.816;2023-06-14T00:52:06;16.00;99.90
9383;DHT22;4731;49.708;10.816;2023-06-14T00:55:01;14.90;99.90
9383;DHT22;4731;49.708;10.816;2023-06-14T00:57:29;14.80;99.90
9383;DHT22;4731;49.708;10.816;2023-06-14T00:59:56;14.70;99.90
9383;DHT22;4731;49.708;10.816;2023-06-14T01:02:49;14.60;99.90
9383;DHT22;4731;49.708;10.816;2023-06-14T01:05:17;14.50;99.90
9383;DHT22;4731;49.708;10.816;2023-06-14T01:07:57;14.40;99.90
9383;DHT22;4731;49.708;10.816;2023-06-14T01:10:56;14.40;99.90
9383;DHT22;4731;49.708;10.816;2023-06-14T01:13:29;14.40;99.90
9383;DHT22;4731;49.708;10.816;2023-06-14T01:16:21;14.40;99.90
9383;DHT22;4731;49.708;10.816;2023-06-14T01:19:11;14.30;99.90
9383;DHT22;4731;49.708;10.816;2023-06-14T01:21:48;14.20;99.90
9383;DHT22;4731;49.708;10.816;2023-06-14T01:24:20;14.20;99.90
9383;DHT22;4731;49.708;10.816;2023-06-14T01:27:12;14.10;99.90
9383;DHT22;4731;49.708;10.816;2023-06-14T01:29:58;14.10;99.90
9383;DHT22;4731;49.708;10.816;2023-06-14T01:32:41;14.00;99.90
9383;DHT22;4731;49.708;10.816;2023-06-14T01:35:23;13.90;99.90
9383;DHT22;4731;49.708;10.816;2023-06-14T01:38:01;13.90;99.90
9383;DHT22;4731;49.708;10.816;2023-06-14T01:40:54;13.80;99.90
9383;DHT22;4731;49.708;10.816;2023-06-14T01:43:28;13.80;99.90
9383;DHT22;4731;49.708;10.816;2023-06-14T01:46:12;13.80;99.90
9383;DHT22;4731;49.708;10.816;2023-06-14T01:48:43;13.80;99.90
9383;DHT22;4731;49.708;10.816;2023-06-14T01:51:17;13.70;99.90
9383;DHT22;4731;49.708;10.816;2023-06-14T01:53:54;13.70;99.90
9383;DHT22;4731;49.708;10.816;2023-06-14T01:56:34;13.70;99.90
9383;DHT22;4731;49.708;10.816;2023-06-14T01:59:15;13.70;99.90
9383;DHT22;4731;49.708;10.816;2023-06-14T02:01:44;13.60;99.90
9383;DHT22;4731;49.708;10.816;2023-06-14T02:04:14;13.60;99.90
9383;DHT22;4731;49.708;10.816;2023-06-14T02:06:53;13.50;99.90
9383;DHT22;4731;49.708;10.816;2023-06-14T02:09:29;13.50;99.90
9383;DHT22;4731;49.708;10.816;2023-06-14T02:12:15;13.50;99.90
9383;DHT22;4731;49.708;10.816;2023-06-14T02:14:47;13.50;99.90
9383;DHT22;4731;49.708;10.816;2023-06-14T02:17:28;13.50;99.90
9383;DHT22;4731;49.708;10.816;2023-06-14T02:20:09;13.50;99.90
9383;DHT22;4731;49.708;10.816;2023-06-14T02:22:41;13.40;99.90
9383;DHT22;4731;49.708;10.816;2023-06-14T02:25:09;13.40;99.90
9383;DHT22;4731;49.708;10.816;2023-06-14T02:27:53;13.40;99.90
9383;DHT22;4731;49.708;10.816;2023-06-14T02:30:42;13.40;99.90
9383;DHT22;4731;49.708;10.816;2023-06-14T02:33:13;13.40;99.90
9383;DHT22;4731;49.708;10.816;2023-06-14T02:35:43;13.40;99.90
9383;DHT22;4731;49.708;10.816;2023-06-14T02:38:25;13.50;99.90
9383;DHT22;4731;49.708;10.816;2023-06-14T02:40:58;13.40;99.90
9383;DHT22;4731;49.708;10.816;2023-06-14T02:43:32;13.50;99.90
9383;DHT22;4731;49.708;10.816;2023-06-14T02:46:11;13.50;99.90
9383;DHT22;4731;49.708;10.816;2023-06-14T02:49:05;13.50;99.90
9383;DHT22;4731;49.708;10.816;2023-06-14T02:51:43;13.40;99.90
9383;DHT22;4731;49.708;10.816;2023-06-14T02:54:15;13.40;99.90
9383;DHT22;4731;49.708;10.816;2023-06-14T02:56:42;13.20;99.90
9383;DHT22;4731;49.708;10.816;2023-06-14T02:59:23;13.20;99.90
9383;DHT22;4731;49.708;10.816;2023-06-14T03:01:54;13.10;99.90
9383;DHT22;4731;49.708;10.816;2023-06-14T03:07:13;13.00;99.90
9383;DHT22;4731;49.708;10.816;2023-06-14T03:09:51;13.00;99.90
9383;DHT22;4731;49.708;10.816;2023-06-14T03:12:21;13.00;99.90
9383;DHT22;4731;49.708;10.816;2023-06-14T03:15:01;13.00;99.90
9383;DHT22;4731;49.708;10.816;2023-06-14T03:17:37;13.00;99.90
9383;DHT22;4731;49.708;10.816;2023-06-14T03:20:10;13.00;99.90
9383;DHT22;4731;49.708;10.816;2023-06-14T03:22:41;13.00;99.90
9383;DHT22;4731;49.708;10.816;2023-06-14T03:25:24;12.90;99.90
9383;DHT22;4731;49.708;10.816;2023-06-14T03:27:51;12.90;99.90
9383;DHT22;4731;49.708;10.816;2023-06-14T03:31:00;12.80;99.90
9383;DHT22;4731;49.708;10.816;2023-06-14T03:34:04;12.80;99.90
9383;DHT22;4731;49.708;10.816;2023-06-14T03:36:56;12.80;99.90
9383;DHT22;4731;49.708;10.816;2023-06-14T03:40:01;12.80;99.90
9383;DHT22;4731;49.708;10.816;2023-06-14T03:42:40;12.80;99.90
9383;DHT22;4731;49.708;10.816;2023-06-14T03:45:20;12.70;99.90
9383;DHT22;4731;49.708;10.816;2023-06-14T03:48:02;12.80;99.90
9383;DHT22;4731;49.708;10.816;2023-06-14T03:50:55;12.80;99.90
9383;DHT22;4731;49.708;10.816;2023-06-14T03:53:29;12.90;99.90
9383;DHT22;4731;49.708;10.816;2023-06-14T03:55:56;12.90;99.90
9383;DHT22;4731;49.708;10.816;2023-06-14T03:58:23;13.10;99.90
9383;DHT22;4731;49.708;10.816;2023-06-14T04:00:50;13.00;99.90
9383;DHT22;4731;49.708;10.816;2023-06-14T04:03:18;13.10;99.90
9383;DHT22;4731;49.708;10.816;2023-06-14T04:05:45;14.80;99.90
9383;DHT22;4731;49.708;10.816;2023-06-14T04:08:14;13.40;99.90
9383;DHT22;4731;49.708;10.816;2023-06-14T04:10:44;13.20;99.90
9383;DHT22;4731;49.708;10.816;2023-06-14T04:13:11;13.20;99.90
9383;DHT22;4731;49.708;10.816;2023-06-14T04:15:38;13.30;99.90
9383;DHT22;4731;49.708;10.816;2023-06-14T04:18:07;13.30;99.90
9383;DHT22;4731;49.708;10.816;2023-06-14T04:20:35;13.40;99.90
9383;DHT22;4731;49.708;10.816;2023-06-14T04:23:11;13.50;99.90
9383;DHT22;4731;49.708;10.816;2023-06-14T04:25:39;13.70;99.90
9383;DHT22;4731;49.708;10.816;2023-06-14T04:28:10;13.80;99.90
9383;DHT22;4731;49.708;10.816;2023-06-14T04:30:37;13.90;99.90
9383;DHT22;4731;49.708;10.816;2023-06-14T04:33:05;14.00;99.90
9383;DHT22;4731;49.708;10.816;2023-06-14T04:35:32;14.10;99.90
9383;DHT22;4731;49.708;10.816;2023-06-14T04:38:02;14.20;99.90
9383;DHT22;4731;49.708;10.816;2023-06-14T04:40:30;14.30;99.90
9383;DHT22;4731;49.708;10.816;2023-06-14T04:42:58;14.50;99.90
9383;DHT22;4731;49.708;10.816;2023-06-14T04:45:26;14.60;99.90
9383;DHT22;4731;49.708;10.816;2023-06-14T04:47:58;14.80;99.90
9383;DHT22;4731;49.708;10.816;2023-06-14T04:50:25;16.60;99.90
9383;DHT22;4731;49.708;10.816;2023-06-14T04:52:52;15.10;99.90
9383;DHT22;4731;49.708;10.816;2023-06-14T04:55:21;15.30;99.90
9383;DHT22;4731;49.708;10.816;2023-06-14T04:57:48;15.40;99.90
9383;DHT22;4731;49.708;10.816;2023-06-14T05:00:19;16.90;99.90
9383;DHT22;4731;49.708;10.816;2023-06-14T05:02:45;15.60;99.90
9383;DHT22;4731;49.708;10.816;2023-06-14T05:05:17;15.70;99.90
9383;DHT22;4731;49.708;10.816;2023-06-14T05:07:45;15.70;99.90
9383;DHT22;4731;49.708;10.816;2023-06-14T05:10:11;15.90;99.90
9383;DHT22;4731;49.708;10.816;2023-06-14T05:12:39;16.00;99.90
9383;DHT22;4731;49.708;10.816;2023-06-14T05:15:09;16.10;99.90
9383;DHT22;4731;49.708;10.816;2023-06-14T05:17:36;16.20;99.90
9383;DHT22;4731;49.708;10.816;2023-06-14T05:20:04;16.20;99.90
9383;DHT22;4731;49.708;10.816;2023-06-14T05:22:32;16.40;99.90
9383;DHT22;4731;49.708;10.816;2023-06-14T05:24:58;16.50;99.90
9383;DHT22;4731;49.708;10.816;2023-06-14T05:27:25;16.70;99.90
9383;DHT22;4731;49.708;10.816;2023-06-14T05:29:53;16.60;99.90
9383;DHT22;4731;49.708;10.816;2023-06-14T05:32:21;16.70;99.90
9383;DHT22;4731;49.708;10.816;2023-06-14T05:34:48;16.80;99.90
9383;DHT22;4731;49.708;10.816;2023-06-14T05:37:15;17.10;99.90
9383;DHT22;4731;49.708;10.816;2023-06-14T05:39:42;18.00;99.90
9383;DHT22;4731;49.708;10.816;2023-06-14T05:42:09;17.20;99.90
9383;DHT22;4731;49.708;10.816;2023-06-14T05:44:36;17.50;99.90
9383;DHT22;4731;49.708;10.816;2023-06-14T05:47:04;17.40;99.90
9383;DHT22;4731;49.708;10.816;2023-06-14T05:49:31;17.60;99.90
9383;DHT22;4731;49.708;10.816;2023-06-14T05:51:58;17.90;99.90
9383;DHT22;4731;49.708;10.816;2023-06-14T05:54:25;18.00;99.90
9383;DHT22;4731;49.708;10.816;2023-06-14T05:56:52;20.00;99.90
9383;DHT22;4731;49.708;10.816;2023-06-14T05:59:18;18.40;99.90
9383;DHT22;4731;49.708;10.816;2023-06-14T06:01:45;18.80;99.90
9383;DHT22;4731;49.708;10.816;2023-06-14T06:04:13;20.40;99.90
9383;DHT22;4731;49.708;10.816;2023-06-14T06:06:40;18.90;99.90
9383;DHT22;4731;49.708;10.816;2023-06-14T06:09:07;18.80;99.90
9383;DHT22;4731;49.708;10.816;2023-06-14T06:11:33;18.80;99.90
9383;DHT22;4731;49.708;10.816;2023-06-14T06:14:00;19.10;99.90
9383;DHT22;4731;49.708;10.816;2023-06-14T06:16:27;18.90;99.90
9383;DHT22;4731;49.708;10.816;2023-06-14T06:18:54;19.10;99.90
9383;DHT22;4731;49.708;10.816;2023-06-14T06:21:22;19.70;99.90
9383;DHT22;4731;49.708;10.816;2023-06-14T06:23:53;19.00;99.90
9383;DHT22;4731;49.708;10.816;2023-06-14T06:26:22;18.80;99.90
9383;DHT22;4731;49.708;10.816;2023-06-14T06:28:49;18.80;99.90
9383;DHT22;4731;49.708;10.816;2023-06-14T06:31:15;18.90;99.90
9383;DHT22;4731;49.708;10.816;2023-06-14T06:33:42;20.90;99.90
9383;DHT22;4731;49.708;10.816;2023-06-14T06:36:09;18.50;99.90
9383;DHT22;4731;49.708;10.816;2023-06-14T06:38:37;21.00;99.90
9383;DHT22;4731;49.708;10.816;2023-06-14T06:41:03;18.60;99.90
9383;DHT22;4731;49.708;10.816;2023-06-14T06:43:30;18.70;99.90
9383;DHT22;4731;49.708;10.816;2023-06-14T06:45:57;18.50;99.90
9383;DHT22;4731;49.708;10.816;2023-06-14T06:48:24;18.80;99.90
9383;DHT22;4731;49.708;10.816;2023-06-14T06:50:50;19.00;99.90
9383;DHT22;4731;49.708;10.816;2023-06-14T06:53:17;19.20;99.90
9383;DHT22;4731;49.708;10.816;2023-06-14T06:55:46;20.60;99.90
9383;DHT22;4731;49.708;10.816;2023-06-14T06:58:14;19.80;99.90
9383;DHT22;4731;49.708;10.816;2023-06-14T07:00:40;19.90;99.90
9383;DHT22;4731;49.708;10.816;2023-06-14T07:03:07;20.10;99.90
9383;DHT22;4731;49.708;10.816;2023-06-14T07:05:34;20.20;99.90
9383;DHT22;4731;49.708;10.816;2023-06-14T07:08:01;20.60;99.90
9383;DHT22;4731;49.708;10.816;2023-06-14T07:10:28;20.80;99.90
9383;DHT22;4731;49.708;10.816;2023-06-14T07:12:56;21.00;99.90
9383;DHT22;4731;49.708;10.816;2023-06-14T07:15:23;21.90;99.90
9383;DHT22;4731;49.708;10.816;2023-06-14T07:17:49;21.40;99.90
9383;DHT22;4731;49.708;10.816;2023-06-14T07:20:18;21.70;99.90
9383;DHT22;4731;49.708;10.816;2023-06-14T07:22:48;21.40;99.90
9383;DHT22;4731;49.708;10.816;2023-06-14T07:25:14;21.50;99.90
9383;DHT22;4731;49.708;10.816;2023-06-14T07:27:41;21.70;99.90
9383;DHT22;4731;49.708;10.816;2023-06-14T07:30:10;21.80;99.90
9383;DHT22;4731;49.708;10.816;2023-06-14T07:32:38;21.60;99.90
9383;DHT22;4731;49.708;10.816;2023-06-14T07:35:05;21.50;99.90
9383;DHT22;4731;49.708;10.816;2023-06-14T07:37:32;21.30;99.90
9383;DHT22;4731;49.708;10.816;2023-06-14T07:39:59;21.20;99.90
9383;DHT22;4731;49.708;10.816;2023-06-14T07:42:25;21.50;99.90
9383;DHT22;4731;49.708;10.816;2023-06-14T07:44:52;21.80;99.90
9383;DHT22;4731;49.708;10.816;2023-06-14T07:47:20;22.00;99.90
9383;DHT22;4731;49.708;10.816;2023-06-14T07:49:47;22.40;99.90
9383;DHT22;4731;49.708;10.816;2023-06-14T07:52:14;24.10;99.90
9383;DHT22;4731;49.708;10.816;2023-06-14T07:54:41;22.80;99.90
9383;DHT22;4731;49.708;10.816;2023-06-14T07:57:08;23.20;99.90
9383;DHT22;4731;49.708;10.816;2023-06-14T07:59:35;23.10;99.90
9383;DHT22;4731;49.708;10.816;2023-06-14T08:02:02;22.50;99.90
9383;DHT22;4731;49.708;10.816;2023-06-14T08:04:31;22.70;99.90
9383;DHT22;4731;49.708;10.816;2023-06-14T08:06:58;23.00;99.90
9383;DHT22;4731;49.708;10.816;2023-06-14T08:09:24;23.00;99.90
9383;DHT22;4731;49.708;10.816;2023-06-14T08:11:53;22.80;99.90
9383;DHT22;4731;49.708;10.816;2023-06-14T08:14:19;22.30;99.90
9383;DHT22;4731;49.708;10.816;2023-06-14T08:16:46;22.60;99.90
9383;DHT22;4731;49.708;10.816;2023-06-14T08:19:13;22.90;99.90
9383;DHT22;4731;49.708;10.816;2023-06-14T08:21:43;22.50;99.90
9383;DHT22;4731;49.708;10.816;2023-06-14T08:24:11;22.70;99.90
9383;DHT22;4731;49.708;10.816;2023-06-14T08:26:38;22.80;99.90
9383;DHT22;4731;49.708;10.816;2023-06-14T08:29:05;23.00;99.90
9383;DHT22;4731;49.708;10.816;2023-06-14T08:31:33;23.50;99.90
9383;DHT22;4731;49.708;10.816;2023-06-14T08:34:00;22.80;99.90
9383;DHT22;4731;49.708;10.816;2023-06-14T08:36:27;22.10;99.90
9383;DHT22;4731;49.708;10.816;2023-06-14T08:38:55;22.60;99.90
9383;DHT22;4731;49.708;10.816;2023-06-14T08:41:22;23.10;99.90
9383;DHT22;4731;49.708;10.816;2023-06-14T08:43:50;23.30;99.90
9383;DHT22;4731;49.708;10.816;2023-06-14T08:46:18;23.40;99.90
9383;DHT22;4731;49.708;10.816;2023-06-14T08:48:48;23.80;99.90
9383;DHT22;4731;49.708;10.816;2023-06-14T08:51:18;24.20;99.90
9383;DHT22;4731;49.708;10.816;2023-06-14T08:53:52;24.10;99.90
9383;DHT22;4731;49.708;10.816;2023-06-14T08:56:21;23.50;99.90
9383;DHT22;4731;49.708;10.816;2023-06-14T08:58:51;23.60;99.90
9383;DHT22;4731;49.708;10.816;2023-06-14T09:01:18;23.10;99.90
9383;DHT22;4731;49.708;10.816;2023-06-14T09:03:44;23.40;99.90
9383;DHT22;4731;49.708;10.816;2023-06-14T09:06:13;23.70;99.90
9383;DHT22;4731;49.708;10.816;2023-06-14T09:08:42;24.20;99.90
9383;DHT22;4731;49.708;10.816;2023-06-14T09:11:10;24.70;99.90
9383;DHT22;4731;49.708;10.816;2023-06-14T09:13:39;24.90;99.90
9383;DHT22;4731;49.708;10.816;2023-06-14T09:16:06;24.90;99.90
9383;DHT22;4731;49.708;10.816;2023-06-14T09:18:34;24.40;99.90
9383;DHT22;4731;49.708;10.816;2023-06-14T09:21:01;23.70;99.90
9383;DHT22;4731;49.708;10.816;2023-06-14T09:23:28;22.80;99.90
9383;DHT22;4731;49.708;10.816;2023-06-14T09:25:55;22.30;99.90
9383;DHT22;4731;49.708;10.816;2023-06-14T09:28:27;22.50;99.90
9383;DHT22;4731;49.708;10.816;2023-06-14T09:30:55;23.20;99.90
9383;DHT22;4731;49.708;10.816;2023-06-14T09:33:21;23.00;99.90
9383;DHT22;4731;49.708;10.816;2023-06-14T09:35:51;23.50;99.90
9383;DHT22;4731;49.708;10.816;2023-06-14T09:38:18;23.20;99.90
9383;DHT22;4731;49.708;10.816;2023-06-14T09:40:45;23.40;99.90
9383;DHT22;4731;49.708;10.816;2023-06-14T09:43:12;24.20;99.90
9383;DHT22;4731;49.708;10.816;2023-06-14T09:45:39;24.00;99.90
9383;DHT22;4731;49.708;10.816;2023-06-14T09:48:08;24.60;99.90
9383;DHT22;4731;49.708;10.816;2023-06-14T09:50:35;25.10;99.90
9383;DHT22;4731;49.708;10.816;2023-06-14T09:53:05;25.70;99.90
9383;DHT22;4731;49.708;10.816;2023-06-14T09:55:34;26.20;99.90
9383;DHT22;4731;49.708;10.816;2023-06-14T09:58:04;26.90;99.90
9383;DHT22;4731;49.708;10.816;2023-06-14T10:00:32;26.50;99.90
9383;DHT22;4731;49.708;10.816;2023-06-14T10:03:03;26.00;99.90
9383;DHT22;4731;49.708;10.816;2023-06-14T10:05:35;25.70;99.90
9383;DHT22;4731;49.708;10.816;2023-06-14T10:08:06;25.90;99.90
9383;DHT22;4731;49.708;10.816;2023-06-14T10:10:34;25.60;99.90
9383;DHT22;4731;49.708;10.816;2023-06-14T10:13:01;25.50;99.90
9383;DHT22;4731;49.708;10.816;2023-06-14T10:15:32;25.50;99.90
9383;DHT22;4731;49.708;10.816;2023-06-14T10:18:07;25.40;99.90
9383;DHT22;4731;49.708;10.816;2023-06-14T10:20:44;25.40;99.90
9383;DHT22;4731;49.708;10.816;2023-06-14T10:23:18;25.70;99.90
9383;DHT22;4731;49.708;10.816;2023-06-14T10:25:45;25.80;99.90
9383;DHT22;4731;49.708;10.816;2023-06-14T10:28:17;25.40;99.90
9383;DHT22;4731;49.708;10.816;2023-06-14T10:31:11;25.10;99.90
9383;DHT22;4731;49.708;10.816;2023-06-14T10:33:48;25.10;99.90
9383;DHT22;4731;49.708;10.816;2023-06-14T10:36:27;25.30;99.90
9383;DHT22;4731;49.708;10.816;2023-06-14T10:39:01;25.60;99.90
9383;DHT22;4731;49.708;10.816;2023-06-14T10:41:29;25.60;99.90
9383;DHT22;4731;49.708;10.816;2023-06-14T10:44:41;25.60;99.90
9383;DHT22;4731;49.708;10.816;2023-06-14T10:47:10;25.00;99.90
9383;DHT22;4731;49.708;10.816;2023-06-14T10:49:40;25.30;99.90
9383;DHT22;4731;49.708;10.816;2023-06-14T10:52:10;25.30;99.70
9383;DHT22;4731;49.708;10.816;2023-06-14T10:55:02;25.30;98.70
9383;DHT22;4731;49.708;10.816;2023-06-14T10:57:29;24.40;99.80
9383;DHT22;4731;49.708;10.816;2023-06-14T10:59:58;23.80;97.80
9383;DHT22;4731;49.708;10.816;2023-06-14T11:02:46;23.80;99.90
9383;DHT22;4731;49.708;10.816;2023-06-14T11:05:23;24.40;99.60
9383;DHT22;4731;49.708;10.816;2023-06-14T11:08:12;25.00;99.10
9383;DHT22;4731;49.708;10.816;2023-06-14T11:10:44;26.10;98.90
9383;DHT22;4731;49.708;10.816;2023-06-14T11:13:11;26.80;97.00
9383;DHT22;4731;49.708;10.816;2023-06-14T11:15:39;26.80;96.20
9383;DHT22;4731;49.708;10.816;2023-06-14T11:18:09;26.70;95.10
9383;DHT22;4731;49.708;10.816;2023-06-14T11:20:36;26.80;95.80
9383;DHT22;4731;49.708;10.816;2023-06-14T11:23:05;25.60;94.10
9383;DHT22;4731;49.708;10.816;2023-06-14T11:25:32;25.40;94.20
9383;DHT22;4731;49.708;10.816;2023-06-14T11:27:59;25.00;95.70
9383;DHT22;4731;49.708;10.816;2023-06-14T11:30:26;24.40;96.40
9383;DHT22;4731;49.708;10.816;2023-06-14T11:32:55;24.70;97.60
9383;DHT22;4731;49.708;10.816;2023-06-14T11:35:31;24.90;97.60
9383;DHT22;4731;49.708;10.816;2023-06-14T11:38:01;26.50;96.10
9383;DHT22;4731;49.708;10.816;2023-06-14T11:40:30;26.50;96.50
9383;DHT22;4731;49.708;10.816;2023-06-14T11:43:00;27.10;94.80
9383;DHT22;4731;49.708;10.816;2023-06-14T11:45:29;27.70;95.00
9383;DHT22;4731;49.708;10.816;2023-06-14T11:47:57;28.10;93.70
9383;DHT22;4731;49.708;10.816;2023-06-14T11:50:25;28.40;92.70
9383;DHT22;4731;49.708;10.816;2023-06-14T11:52:55;28.40;92.70
9383;DHT22;4731;49.708;10.816;2023-06-14T11:55:22;26.60;90.90
9383;DHT22;4731;49.708;10.816;2023-06-14T11:57:50;28.80;90.40
9383;DHT22;4731;49.708;10.816;2023-06-14T12:00:18;28.80;90.80
9383;DHT22;4731;49.708;10.816;2023-06-14T12:02:52;27.30;86.80
9383;DHT22;4731;49.708;10.816;2023-06-14T12:05:21;26.80;88.70
9383;DHT22;4731;49.708;10.816;2023-06-14T12:07:48;26.90;90.20
9383;DHT22;4731;49.708;10.816;2023-06-14T12:10:16;26.90;90.10
9383;DHT22;4731;49.708;10.816;2023-06-14T12:12:43;27.30;91.10
9383;DHT22;4731;49.708;10.816;2023-06-14T12:15:11;27.20;88.30
9383;DHT22;4731;49.708;10.816;2023-06-14T12:17:39;26.50;89.90
9383;DHT22;4731;49.708;10.816;2023-06-14T12:20:08;26.40;89.10
9383;DHT22;4731;49.708;10.816;2023-06-14T12:22:39;26.60;90.90
9383;DHT22;4731;49.708;10.816;2023-06-14T12:25:23;25.50;90.60
9383;DHT22;4731;49.708;10.816;2023-06-14T12:27:52;25.60;91.90
9383;DHT22;4731;49.708;10.816;2023-06-14T12:30:20;25.70;90.10
9383;DHT22;4731;49.708;10.816;2023-06-14T12:32:47;26.20;91.10
9383;DHT22;4731;49.708;10.816;2023-06-14T12:35:14;25.70;90.60
9383;DHT22;4731;49.708;10.816;2023-06-14T12:37:41;24.80;90.40
9383;DHT22;4731;49.708;10.816;2023-06-14T12:40:09;24.90;92.20
9383;DHT22;4731;49.708;10.816;2023-06-14T12:42:36;24.80;91.50
9383;DHT22;4731;49.708;10.816;2023-06-14T12:45:04;24.00;92.50
9383;DHT22;4731;49.708;10.816;2023-06-14T12:47:32;24.50;93.30
9383;DHT22;4731;49.708;10.816;2023-06-14T12:49:59;25.00;94.50
9383;DHT22;4731;49.708;10.816;2023-06-14T12:52:26;25.50;94.30
9383;DHT22;4731;49.708;10.816;2023-06-14T12:54:53;25.50;93.30
9383;DHT22;4731;49.708;10.816;2023-06-14T12:57:20;25.60;93.20
9383;DHT22;4731;49.708;10.816;2023-06-14T12:59:47;25.60;93.70
9383;DHT22;4731;49.708;10.816;2023-06-14T13:02:16;25.80;93.40
9383;DHT22;4731;49.708;10.816;2023-06-14T13:04:44;25.20;90.80
9383;DHT22;4731;49.708;10.816;2023-06-14T13:07:11;25.10;91.40
9383;DHT22;4731;49.708;10.816;2023-06-14T13:09:38;25.30;92.60
9383;DHT22;4731;49.708;10.816;2023-06-14T13:12:05;25.80;92.20
9383;DHT22;4731;49.708;10.816;2023-06-14T13:14:32;26.30;93.10
9383;DHT22;4731;49.708;10.816;2023-06-14T13:16:59;27.00;89.90
9383;DHT22;4731;49.708;10.816;2023-06-14T13:19:26;27.10;89.60
9383;DHT22;4731;49.708;10.816;2023-06-14T13:21:54;27.10;89.40
9383;DHT22;4731;49.708;10.816;2023-06-14T13:24:21;26.90;88.80
9383;DHT22;4731;49.708;10.816;2023-06-14T13:26:48;26.80;89.90
9383;DHT22;4731;49.708;10.816;2023-06-14T13:29:15;27.20;90.30
9383;DHT22;4731;49.708;10.816;2023-06-14T13:31:42;27.10;88.60
9383;DHT22;4731;49.708;10.816;2023-06-14T13:34:09;26.40;90.00
9383;DHT22;4731;49.708;10.816;2023-06-14T13:36:35;25.50;90.30
9383;DHT22;4731;49.708;10.816;2023-06-14T13:39:04;25.50;90.70
9383;DHT22;4731;49.708;10.816;2023-06-14T13:41:31;25.10;92.00
9383;DHT22;4731;49.708;10.816;2023-06-14T13:44:00;25.50;92.50
9383;DHT22;4731;49.708;10.816;2023-06-14T13:46:29;25.40;91.20
9383;DHT22;4731;49.708;10.816;2023-06-14T13:48:56;25.50;91.70
9383;DHT22;4731;49.708;10.816;2023-06-14T13:51:24;25.90;91.60
9383;DHT22;4731;49.708;10.816;2023-06-14T13:53:53;25.90;91.00
9383;DHT22;4731;49.708;10.816;2023-06-14T13:56:22;25.00;91.60
9383;DHT22;4731;49.708;10.816;2023-06-14T13:58:50;24.90;91.80
9383;DHT22;4731;49.708;10.816;2023-06-14T14:01:17;25.00;91.30
9383;DHT22;4731;49.708;10.816;2023-06-14T14:03:45;24.90;90.40
9383;DHT22;4731;49.708;10.816;2023-06-14T14:06:12;24.40;87.50
9383;DHT22;4731;49.708;10.816;2023-06-14T14:08:39;24.80;87.90
9383;DHT22;4731;49.708;10.816;2023-06-14T14:11:06;24.70;90.00
9383;DHT22;4731;49.708;10.816;2023-06-14T14:13:35;25.00;90.90
9383;DHT22;4731;49.708;10.816;2023-06-14T14:16:04;25.30;89.70
9383;DHT22;4731;49.708;10.816;2023-06-14T14:18:31;25.30;89.10
9383;DHT22;4731;49.708;10.816;2023-06-14T14:20:59;25.20;90.70
9383;DHT22;4731;49.708;10.816;2023-06-14T14:23:26;25.10;91.70
9383;DHT22;4731;49.708;10.816;2023-06-14T14:25:53;25.40;91.30
9383;DHT22;4731;49.708;10.816;2023-06-14T14:28:29;25.40;91.10
9383;DHT22;4731;49.708;10.816;2023-06-14T14:30:58;25.30;90.90
9383;DHT22;4731;49.708;10.816;2023-06-14T14:33:26;25.00;91.10
9383;DHT22;4731;49.708;10.816;2023-06-14T14:35:53;25.00;91.10
9383;DHT22;4731;49.708;10.816;2023-06-14T14:38:20;25.10;91.80
9383;DHT22;4731;49.708;10.816;2023-06-14T14:40:47;23.10;91.30
9383;DHT22;4731;49.708;10.816;2023-06-14T14:43:14;25.40;92.20
9383;DHT22;4731;49.708;10.816;2023-06-14T14:48:09;25.80;91.80
9383;DHT22;4731;49.708;10.816;2023-06-14T14:50:36;26.10;91.60
9383;DHT22;4731;49.708;10.816;2023-06-14T14:53:03;26.20;90.90
9383;DHT22;4731;49.708;10.816;2023-06-14T14:55:30;26.00;90.80
9383;DHT22;4731;49.708;10.816;2023-06-14T14:57:57;25.60;90.50
9383;DHT22;4731;49.708;10.816;2023-06-14T15:00:24;25.60;90.50
9383;DHT22;4731;49.708;10.816;2023-06-14T15:02:51;25.60;89.10
9383;DHT22;4731;49.708;10.816;2023-06-14T15:05:19;25.50;90.10
9383;DHT22;4731;49.708;10.816;2023-06-14T15:07:46;25.70;91.00
9383;DHT22;4731;49.708;10.816;2023-06-14T15:10:14;26.00;90.50
9383;DHT22;4731;49.708;10.816;2023-06-14T15:12:40;26.30;91.20
9383;DHT22;4731;49.708;10.816;2023-06-14T15:15:08;26.30;90.60
9383;DHT22;4731;49.708;10.816;2023-06-14T15:17:36;26.20;90.60
9383;DHT22;4731;49.708;10.816;2023-06-14T15:20:04;26.20;90.20
9383;DHT22;4731;49.708;10.816;2023-06-14T15:22:33;26.30;90.80
9383;DHT22;4731;49.708;10.816;2023-06-14T15:25:00;26.30;89.20
9383;DHT22;4731;49.708;10.816;2023-06-14T15:27:27;26.00;90.40
9383;DHT22;4731;49.708;10.816;2023-06-14T15:29:54;25.80;90.80
9383;DHT22;4731;49.708;10.816;2023-06-14T15:32:21;25.70;91.50
9383;DHT22;4731;49.708;10.816;2023-06-14T15:34:48;25.90;91.00
9383;DHT22;4731;49.708;10.816;2023-06-14T15:37:15;25.70;90.20
9383;DHT22;4731;49.708;10.816;2023-06-14T15:39:43;25.70;91.00
9383;DHT22;4731;49.708;10.816;2023-06-14T15:42:10;25.20;91.50
9383;DHT22;4731;49.708;10.816;2023-06-14T15:44:37;24.70;91.50
9383;DHT22;4731;49.708;10.816;2023-06-14T15:47:04;24.60;91.80
9383;DHT22;4731;49.708;10.816;2023-06-14T15:49:31;24.40;91.60
9383;DHT22;4731;49.708;10.816;2023-06-14T15:51:57;24.30;92.00
9383;DHT22;4731;49.708;10.816;2023-06-14T15:54:26;24.10;92.30
9383;DHT22;4731;49.708;10.816;2023-06-14T15:56:54;24.00;92.80
9383;DHT22;4731;49.708;10.816;2023-06-14T15:59:21;24.00;93.00
9383;DHT22;4731;49.708;10.816;2023-06-14T16:01:47;24.00;93.50
9383;DHT22;4731;49.708;10.816;2023-06-14T16:04:14;23.90;93.80
9383;DHT22;4731;49.708;10.816;2023-06-14T16:06:41;23.80;94.10
9383;DHT22;4731;49.708;10.816;2023-06-14T16:09:08;23.70;94.30
9383;DHT22;4731;49.708;10.816;2023-06-14T16:11:35;23.90;94.30
9383;DHT22;4731;49.708;10.816;2023-06-14T16:14:03;24.00;93.80